Time;durP1;ratioP1;P1;durP2;ratioP2;P2;SDS_P1;SDS_P2;PMS_P1;PMS_P2;Temp;Humidity;BMP_temperature;BMP_pressure;BME280_temperature;BME280_humidity;BME280_pressure;Samples;Min_cycle;Max_cycle;Signal;HPM_P1;HPM_P2
2023/04/25 00:00:06;;;;;;;2.50;1.50;;;7.40;99.90;;;;;;5031943;28;20531;-68
2023/04/25 00:02:34;;;;;;;4.13;1.83;;;7.40;99.90;;;;;;4998797;28;20221;-68
2023/04/25 00:05:01;;;;;;;7.33;2.00;;;7.40;99.90;;;;;;5020610;28;20962;-69
2023/04/25 00:07:27;;;;;;;2.30;1.40;;;7.30;99.90;;;;;;5030085;28;20512;-68
2023/04/25 00:09:53;;;;;;;12.50;1.77;;;7.30;99.90;;;;;;5029220;28;20526;-68
2023/04/25 00:12:18;;;;;;;5.50;2.37;;;7.30;99.90;;;;;;5016317;28;20190;-68
2023/04/25 00:14:45;;;;;;;1.67;0.90;;;7.30;99.90;;;;;;5021314;28;20194;-68
2023/04/25 00:17:11;;;;;;;5.23;1.80;;;7.30;99.90;;;;;;5030001;28;21050;-66
2023/04/25 00:19:37;;;;;;;2.70;1.70;;;7.30;99.90;;;;;;5020863;28;20414;-68
2023/04/25 00:22:03;;;;;;;3.20;1.47;;;7.20;99.90;;;;;;5028083;28;20189;-68
2023/04/25 00:24:29;;;;;;;3.23;1.60;;;7.20;99.90;;;;;;5021193;28;20438;-68
2023/04/25 00:26:54;;;;;;;4.10;1.13;;;7.30;99.90;;;;;;5025527;28;20234;-68
2023/04/25 00:29:20;;;;;;;2.03;1.50;;;7.20;99.90;;;;;;5005466;28;20242;-68
2023/04/25 00:31:45;;;;;;;2.73;1.77;;;7.20;99.90;;;;;;5010803;28;20628;-68
2023/04/25 00:34:11;;;;;;;5.90;1.60;;;7.20;99.90;;;;;;5013230;28;20202;-68
2023/04/25 00:36:37;;;;;;;4.60;1.57;;;7.10;99.90;;;;;;5012250;28;20301;-68
2023/04/25 00:39:04;;;;;;;2.67;1.40;;;7.10;99.90;;;;;;5023377;28;20178;-68
2023/04/25 00:41:30;;;;;;;3.20;1.80;;;7.10;99.90;;;;;;5013650;28;20886;-68
2023/04/25 00:43:57;;;;;;;4.27;1.93;;;7.10;99.90;;;;;;5012073;28;20738;-68
2023/04/25 00:46:23;;;;;;;3.10;1.53;;;7.10;99.90;;;;;;5006955;28;20529;-68
2023/04/25 00:48:48;;;;;;;2.47;1.37;;;7.00;99.90;;;;;;5020714;28;20515;-68
2023/04/25 00:51:18;;;;;;;1.97;1.00;;;7.10;99.90;;;;;;5014568;28;20186;-68
2023/04/25 00:53:46;;;;;;;2.17;1.30;;;7.10;99.90;;;;;;5023312;28;20252;-68
2023/04/25 00:56:12;;;;;;;2.70;1.73;;;7.10;99.90;;;;;;5026085;28;20480;-68
2023/04/25 00:58:40;;;;;;;3.00;1.50;;;7.10;99.90;;;;;;5013264;28;20414;-68
2023/04/25 01:01:06;;;;;;;1.83;0.93;;;7.10;99.90;;;;;;5017130;28;20425;-68
2023/04/25 01:03:35;;;;;;;3.00;1.47;;;7.20;99.90;;;;;;5018191;28;20472;-68
2023/04/25 01:06:02;;;;;;;5.20;1.63;;;7.20;99.90;;;;;;5017723;28;20425;-68
2023/04/25 01:08:28;;;;;;;1.90;1.07;;;7.30;99.90;;;;;;5017956;28;20453;-68
2023/04/25 01:10:54;;;;;;;2.30;1.23;;;7.20;99.90;;;;;;5018453;28;20496;-68
2023/04/25 01:13:19;;;;;;;2.63;1.40;;;7.30;99.90;;;;;;5016908;28;20610;-68
2023/04/25 01:15:45;;;;;;;2.17;1.33;;;7.20;99.90;;;;;;5031375;28;20550;-68
2023/04/25 01:18:12;;;;;;;2.27;1.63;;;7.10;99.90;;;;;;5030989;28;20186;-68
2023/04/25 01:20:40;;;;;;;3.20;1.20;;;7.20;99.90;;;;;;5031091;28;20627;-68
2023/04/25 01:23:06;;;;;;;2.10;1.20;;;7.10;99.90;;;;;;5030552;28;20417;-68
2023/04/25 01:25:31;;;;;;;4.57;1.53;;;7.20;99.90;;;;;;5018746;28;20879;-68
2023/04/25 01:27:58;;;;;;;2.90;1.37;;;7.20;99.90;;;;;;5026238;28;20186;-68
2023/04/25 01:30:27;;;;;;;1.80;1.27;;;7.20;99.90;;;;;;5018643;28;20189;-68
2023/04/25 01:32:55;;;;;;;2.87;1.60;;;7.20;99.90;;;;;;5017227;28;20436;-68
2023/04/25 01:35:23;;;;;;;3.67;1.83;;;7.10;99.90;;;;;;5030280;28;20732;-68
2023/04/25 01:37:49;;;;;;;5.90;1.43;;;7.00;99.90;;;;;;5017660;28;20510;-68
2023/04/25 01:40:15;;;;;;;3.60;1.57;;;7.00;99.90;;;;;;5022638;28;20509;-68
2023/04/25 01:42:43;;;;;;;3.50;1.70;;;7.00;99.90;;;;;;5025052;28;20425;-68
2023/04/25 01:45:10;;;;;;;2.60;1.23;;;6.90;99.90;;;;;;5013121;28;20195;-68
2023/04/25 01:47:36;;;;;;;4.10;1.90;;;6.90;99.90;;;;;;5012969;28;21098;-68
2023/04/25 01:50:04;;;;;;;2.10;1.27;;;6.90;99.90;;;;;;5018509;28;20563;-68
2023/04/25 01:52:29;;;;;;;6.63;1.67;;;6.90;99.90;;;;;;5015638;28;20642;-68
2023/04/25 01:54:57;;;;;;;2.00;1.27;;;6.90;99.90;;;;;;5030647;28;20417;-68
2023/04/25 01:57:23;;;;;;;4.77;2.30;;;6.90;99.90;;;;;;5028586;28;20744;-68
2023/04/25 01:59:49;;;;;;;4.00;1.60;;;6.90;99.90;;;;;;5019464;28;20432;-68
2023/04/25 02:02:15;;;;;;;4.00;1.63;;;6.80;99.90;;;;;;5027363;28;20232;-68
2023/04/25 02:04:40;;;;;;;3.93;1.60;;;6.90;99.90;;;;;;5030206;28;20505;-68
2023/04/25 02:07:06;;;;;;;4.27;2.20;;;6.90;99.90;;;;;;5029042;28;20198;-68
2023/04/25 02:09:32;;;;;;;3.57;1.77;;;6.90;99.90;;;;;;5019686;28;20186;-68
2023/04/25 02:11:58;;;;;;;4.40;1.30;;;6.90;99.90;;;;;;5016445;28;20638;-68
2023/04/25 02:14:23;;;;;;;2.33;1.33;;;6.90;99.90;;;;;;5034501;28;20190;-68
2023/04/25 02:16:51;;;;;;;1.70;1.20;;;6.90;99.90;;;;;;5021046;28;20992;-68
2023/04/25 02:19:16;;;;;;;2.97;1.40;;;6.90;99.90;;;;;;5033830;28;20653;-68
2023/04/25 02:21:42;;;;;;;2.73;1.47;;;6.80;99.90;;;;;;5033982;28;20409;-68
2023/04/25 02:24:08;;;;;;;8.60;1.37;;;6.80;99.90;;;;;;5034172;28;20265;-68
2023/04/25 02:26:33;;;;;;;4.73;1.73;;;6.80;99.90;;;;;;5034296;28;20707;-68
2023/04/25 02:28:59;;;;;;;4.27;1.20;;;6.80;99.90;;;;;;5029562;28;20197;-68
2023/04/25 02:31:25;;;;;;;3.40;1.53;;;6.70;99.90;;;;;;5020784;28;20286;-68
2023/04/25 02:33:51;;;;;;;4.30;1.70;;;6.70;99.90;;;;;;5033307;28;20427;-68
2023/04/25 02:36:17;;;;;;;1.80;1.20;;;6.60;99.90;;;;;;5019526;28;20477;-68
2023/04/25 02:38:42;;;;;;;1.77;1.07;;;6.70;99.90;;;;;;5022339;28;20186;-68
2023/04/25 02:41:08;;;;;;;2.87;1.23;;;6.70;99.90;;;;;;5021619;28;20191;-68
2023/04/25 02:43:33;;;;;;;2.90;1.67;;;6.70;99.90;;;;;;5027976;28;20187;-68
2023/04/25 02:45:59;;;;;;;2.33;1.33;;;6.60;99.90;;;;;;5011008;28;20241;-68
2023/04/25 02:48:25;;;;;;;6.20;2.20;;;6.70;99.90;;;;;;5014980;28;20186;-68
2023/04/25 02:50:50;;;;;;;5.53;1.57;;;6.70;99.90;;;;;;5012066;28;20187;-68
2023/04/25 02:53:16;;;;;;;2.17;1.20;;;6.70;99.90;;;;;;5021850;28;20635;-68
2023/04/25 02:55:41;;;;;;;2.70;1.60;;;6.70;99.90;;;;;;5032348;28;20213;-68
2023/04/25 02:58:07;;;;;;;2.93;1.30;;;6.70;99.90;;;;;;5016244;28;20201;-68
2023/04/25 03:00:33;;;;;;;3.50;1.77;;;6.70;99.90;;;;;;5024221;28;20643;-68
2023/04/25 03:02:58;;;;;;;4.90;1.67;;;6.70;99.90;;;;;;5021693;28;20182;-68
2023/04/25 03:05:24;;;;;;;5.03;2.13;;;6.70;99.90;;;;;;5019095;28;20571;-68
2023/04/25 03:07:49;;;;;;;2.90;1.80;;;6.70;99.90;;;;;;5033042;28;20205;-68
2023/04/25 03:10:15;;;;;;;2.90;1.50;;;6.70;99.90;;;;;;5027464;28;20187;-68
2023/04/25 03:12:40;;;;;;;3.40;1.83;;;6.70;99.90;;;;;;5021402;28;20235;-68
2023/04/25 03:15:07;;;;;;;3.57;1.13;;;6.70;99.90;;;;;;5033212;28;20191;-68
2023/04/25 03:17:32;;;;;;;4.40;1.40;;;6.70;99.90;;;;;;5033481;28;20210;-66
2023/04/25 03:19:58;;;;;;;2.60;1.20;;;6.70;99.90;;;;;;5017670;28;20467;-66
2023/04/25 03:22:24;;;;;;;3.57;1.20;;;6.80;99.90;;;;;;5012426;28;20560;-66
2023/04/25 03:24:50;;;;;;;4.53;1.17;;;6.80;99.90;;;;;;5027595;28;20182;-66
2023/04/25 03:27:16;;;;;;;2.17;1.10;;;6.80;99.90;;;;;;5025023;28;20701;-66
2023/04/25 03:29:41;;;;;;;3.03;1.27;;;6.80;99.90;;;;;;5014166;28;20418;-67
2023/04/25 03:32:07;;;;;;;4.30;1.63;;;6.70;99.90;;;;;;5032200;28;20413;-67
2023/04/25 03:34:32;;;;;;;2.23;1.20;;;6.70;99.90;;;;;;5019077;28;20219;-67
2023/04/25 03:36:59;;;;;;;2.30;1.00;;;6.70;99.90;;;;;;5033091;28;20302;-67
2023/04/25 03:39:25;;;;;;;2.27;1.00;;;6.70;99.90;;;;;;5019558;28;20226;-67
2023/04/25 03:41:50;;;;;;;2.57;1.43;;;6.60;99.90;;;;;;5021060;28;20869;-68
2023/04/25 03:44:16;;;;;;;3.43;1.37;;;6.50;99.90;;;;;;5018591;28;20179;-68
2023/04/25 03:46:42;;;;;;;4.33;2.03;;;6.50;99.90;;;;;;5014035;28;20221;-68
2023/04/25 03:49:07;;;;;;;3.30;1.30;;;6.40;99.90;;;;;;5024124;28;20180;-68
2023/04/25 03:51:33;;;;;;;3.43;1.37;;;6.50;99.90;;;;;;5015567;28;20179;-68
2023/04/25 03:53:58;;;;;;;3.40;1.93;;;6.50;99.90;;;;;;5013394;28;20187;-68
2023/04/25 03:56:24;;;;;;;2.63;1.27;;;6.40;99.90;;;;;;5032709;28;20209;-68
2023/04/25 03:58:50;;;;;;;2.50;1.90;;;6.40;99.90;;;;;;5018971;28;20175;-68
2023/04/25 04:01:16;;;;;;;4.90;1.50;;;6.30;99.90;;;;;;5022447;28;20542;-68
2023/04/25 04:03:41;;;;;;;6.23;2.33;;;6.30;99.90;;;;;;5025104;28;20186;-68
2023/04/25 04:06:08;;;;;;;2.17;1.47;;;6.20;99.90;;;;;;5019272;28;20213;-68
2023/04/25 04:08:34;;;;;;;3.43;1.83;;;6.20;99.90;;;;;;5019117;28;20187;-68
2023/04/25 04:11:00;;;;;;;4.53;2.53;;;6.20;99.90;;;;;;5009192;28;20435;-68
2023/04/25 04:13:27;;;;;;;5.20;1.53;;;6.10;99.90;;;;;;5031736;28;20231;-68
2023/04/25 04:15:52;;;;;;;8.10;1.60;;;6.10;99.90;;;;;;5032317;28;20198;-68
2023/04/25 04:18:18;;;;;;;6.10;1.60;;;6.10;99.90;;;;;;5032407;28;20409;-68
2023/04/25 04:20:44;;;;;;;2.30;1.23;;;6.00;99.90;;;;;;5031670;28;20201;-68
2023/04/25 04:23:10;;;;;;;3.13;1.50;;;6.00;99.90;;;;;;5018728;28;20253;-68
2023/04/25 04:25:36;;;;;;;4.17;2.30;;;5.90;99.90;;;;;;5025477;28;20199;-68
2023/04/25 04:28:02;;;;;;;3.30;1.63;;;5.90;99.90;;;;;;5020827;28;20453;-68
2023/04/25 04:30:31;;;;;;;3.37;1.90;;;5.80;99.90;;;;;;5032229;28;20178;-68
2023/04/25 04:32:57;;;;;;;2.17;1.37;;;5.80;99.90;;;;;;5017780;28;20422;-68
2023/04/25 04:35:23;;;;;;;3.00;2.00;;;5.80;99.90;;;;;;5031070;28;20739;-68
2023/04/25 04:37:50;;;;;;;4.20;1.80;;;5.70;99.90;;;;;;5031607;28;20453;-68
2023/04/25 04:40:16;;;;;;;3.50;1.90;;;5.70;99.90;;;;;;5012109;28;20418;-68
2023/04/25 04:42:42;;;;;;;6.50;2.60;;;5.80;99.90;;;;;;5011609;28;20414;-68
2023/04/25 04:45:09;;;;;;;4.20;1.70;;;5.80;99.90;;;;;;5011426;28;20195;-68
2023/04/25 04:47:36;;;;;;;2.40;1.70;;;5.90;99.90;;;;;;5012043;28;20898;-68
2023/04/25 04:50:09;;;;;;;6.10;1.80;;;5.90;99.90;;;;;;5010962;28;21090;-68
2023/04/25 04:52:35;;;;;;;4.43;1.93;;;6.00;99.90;;;;;;5011591;28;20930;-68
2023/04/25 04:55:03;;;;;;;5.97;1.97;;;6.10;99.90;;;;;;5020975;28;20458;-68
2023/04/25 04:57:29;;;;;;;3.43;1.83;;;6.10;99.90;;;;;;5017737;28;20455;-68
2023/04/25 04:59:54;;;;;;;10.50;2.33;;;6.20;99.90;;;;;;5011588;28;20847;-68
2023/04/25 05:02:20;;;;;;;4.10;2.50;;;6.30;99.90;;;;;;5008375;28;20433;-68
2023/04/25 05:04:46;;;;;;;4.57;2.00;;;6.30;99.90;;;;;;5020173;28;20182;-68
2023/04/25 05:07:12;;;;;;;4.03;2.50;;;6.40;99.90;;;;;;5031638;28;20535;-68
2023/04/25 05:09:37;;;;;;;3.63;2.03;;;6.40;99.90;;;;;;5030629;28;20417;-68
2023/04/25 05:12:03;;;;;;;5.07;1.90;;;6.40;99.90;;;;;;5027014;28;20269;-68
2023/04/25 05:14:29;;;;;;;6.67;2.60;;;6.40;99.90;;;;;;5021899;28;20203;-68
2023/04/25 05:16:55;;;;;;;3.90;2.17;;;6.50;99.90;;;;;;5027320;28;20232;-67
2023/04/25 05:19:20;;;;;;;4.90;2.10;;;6.50;99.90;;;;;;5021676;28;20198;-67
2023/04/25 05:21:46;;;;;;;7.10;1.97;;;6.40;99.90;;;;;;5011148;28;20175;-67
2023/04/25 05:24:11;;;;;;;3.20;1.80;;;6.30;99.90;;;;;;5016627;28;20187;-67
2023/04/25 05:26:37;;;;;;;2.97;1.60;;;6.30;99.90;;;;;;5022240;28;20270;-67
2023/04/25 05:29:03;;;;;;;18.77;1.83;;;6.30;99.90;;;;;;5015454;28;20583;-67
2023/04/25 05:31:29;;;;;;;4.07;1.80;;;6.40;99.90;;;;;;5022488;28;20257;-67
2023/04/25 05:33:54;;;;;;;3.97;2.03;;;6.50;99.90;;;;;;5005352;28;20183;-67
2023/04/25 05:36:21;;;;;;;7.40;2.20;;;6.50;99.90;;;;;;5017657;28;20255;-67
2023/04/25 05:38:46;;;;;;;1.73;1.30;;;6.60;99.90;;;;;;5017362;28;20181;-67
2023/04/25 05:41:12;;;;;;;4.13;2.20;;;6.60;99.90;;;;;;5015716;28;20422;-67
2023/04/25 05:43:37;;;;;;;4.10;2.13;;;6.60;99.90;;;;;;5024342;28;20179;-67
2023/04/25 05:46:03;;;;;;;2.20;1.23;;;6.60;99.90;;;;;;5011727;28;20214;-67
2023/04/25 05:48:30;;;;;;;15.63;2.40;;;6.70;99.90;;;;;;5019169;28;20234;-67
2023/04/25 05:50:56;;;;;;;3.00;1.50;;;6.70;99.90;;;;;;5013189;28;20473;-67
2023/04/25 05:53:21;;;;;;;3.07;2.03;;;6.80;99.90;;;;;;5019868;28;20951;-67
2023/04/25 05:55:47;;;;;;;4.30;2.00;;;6.80;99.90;;;;;;5027964;28;20206;-67
2023/04/25 05:58:13;;;;;;;3.27;2.10;;;6.90;99.90;;;;;;5013261;28;20183;-67
2023/04/25 06:00:38;;;;;;;3.43;1.50;;;6.90;99.90;;;;;;5025882;28;20181;-67
2023/04/25 06:03:04;;;;;;;3.50;1.20;;;7.00;99.90;;;;;;5029792;28;20847;-67
2023/04/25 06:05:30;;;;;;;4.23;1.70;;;7.00;99.90;;;;;;5027575;28;20258;-67
2023/04/25 06:07:56;;;;;;;5.70;2.07;;;7.10;99.90;;;;;;5019351;28;20270;-67
2023/04/25 06:10:22;;;;;;;3.17;2.00;;;7.20;99.90;;;;;;5023255;28;20187;-67
2023/04/25 06:12:48;;;;;;;4.90;1.93;;;7.20;99.90;;;;;;5018801;28;20193;-67
2023/04/25 06:15:13;;;;;;;3.03;1.63;;;7.30;99.90;;;;;;5029614;28;20421;-67
2023/04/25 06:17:39;;;;;;;3.20;1.93;;;7.30;99.90;;;;;;5029830;28;20282;-67
2023/04/25 06:20:05;;;;;;;2.77;1.10;;;7.40;99.90;;;;;;5016425;28;20190;-68
2023/04/25 06:22:31;;;;;;;3.87;1.77;;;7.40;99.90;;;;;;5029925;28;20221;-68
2023/04/25 06:24:58;;;;;;;3.27;2.00;;;7.50;99.90;;;;;;5006668;28;20461;-68
2023/04/25 06:27:24;;;;;;;4.73;2.13;;;7.50;99.90;;;;;;5014875;28;20194;-68
2023/04/25 06:29:50;;;;;;;4.33;2.37;;;7.50;99.90;;;;;;5009517;28;20430;-68
2023/04/25 06:32:15;;;;;;;10.97;2.70;;;7.50;99.90;;;;;;5017046;28;20214;-68
2023/04/25 06:34:41;;;;;;;5.00;2.27;;;7.50;99.90;;;;;;5023029;28;20655;-68
2023/04/25 06:37:06;;;;;;;3.67;1.77;;;7.40;99.90;;;;;;5018354;28;20214;-68
2023/04/25 06:39:32;;;;;;;3.00;1.93;;;7.40;99.90;;;;;;5014989;28;20695;-67
2023/04/25 06:41:58;;;;;;;4.23;2.10;;;7.40;99.90;;;;;;5004837;28;20183;-68
2023/04/25 06:44:25;;;;;;;6.93;1.83;;;7.30;99.90;;;;;;5007899;28;20184;-67
2023/04/25 06:46:51;;;;;;;8.00;1.67;;;7.30;99.90;;;;;;5012251;28;20195;-67
2023/04/25 06:49:17;;;;;;;3.33;1.70;;;7.20;99.90;;;;;;5015365;28;20488;-68
2023/04/25 06:51:42;;;;;;;3.23;2.57;;;7.10;99.90;;;;;;5013738;28;20287;-68
2023/04/25 06:54:08;;;;;;;4.73;2.30;;;7.10;99.90;;;;;;5011317;28;20226;-67
2023/04/25 06:56:34;;;;;;;3.63;2.37;;;7.00;99.90;;;;;;5021691;28;20614;-67
2023/04/25 06:59:00;;;;;;;13.47;2.60;;;7.00;99.90;;;;;;5033248;28;20205;-67
2023/04/25 07:01:26;;;;;;;3.87;2.53;;;6.90;99.90;;;;;;5030393;28;20178;-67
2023/04/25 07:03:51;;;;;;;3.90;2.17;;;6.80;99.90;;;;;;5019756;28;20418;-67
2023/04/25 07:06:17;;;;;;;2.70;1.80;;;6.80;99.90;;;;;;5033841;28;20186;-66
2023/04/25 07:08:43;;;;;;;3.53;2.20;;;6.70;99.90;;;;;;5023836;28;20190;-66
2023/04/25 07:11:08;;;;;;;7.63;3.80;;;6.60;99.90;;;;;;5028497;28;20201;-66
2023/04/25 07:13:34;;;;;;;4.30;2.23;;;6.50;99.90;;;;;;5019548;28;20279;-66
2023/04/25 07:16:00;;;;;;;5.07;2.70;;;6.50;99.90;;;;;;5033370;28;20218;-66
2023/04/25 07:18:25;;;;;;;3.40;2.30;;;6.40;99.90;;;;;;5033150;28;20189;-67
2023/04/25 07:20:51;;;;;;;4.80;2.70;;;6.40;99.90;;;;;;5032906;28;20218;-66
2023/04/25 07:23:17;;;;;;;3.70;2.27;;;6.40;99.90;;;;;;5032497;28;20553;-67
2023/04/25 07:25:42;;;;;;;4.00;2.07;;;6.30;99.90;;;;;;5025166;28;20190;-66
2023/04/25 07:28:08;;;;;;;4.90;2.73;;;6.30;99.90;;;;;;5027939;28;20236;-66
2023/04/25 07:30:34;;;;;;;4.23;2.77;;;6.30;99.90;;;;;;5033283;28;20190;-66
2023/04/25 07:33:00;;;;;;;7.90;3.17;;;6.40;99.90;;;;;;5031097;28;20178;-66
2023/04/25 07:35:26;;;;;;;7.17;2.83;;;6.40;99.90;;;;;;5021495;28;20492;-66
2023/04/25 07:37:51;;;;;;;6.63;2.23;;;6.40;99.90;;;;;;5019883;28;20297;-66
2023/04/25 07:40:17;;;;;;;4.40;2.60;;;6.40;99.90;;;;;;5024898;28;20183;-66
2023/04/25 07:42:43;;;;;;;8.60;3.10;;;6.40;99.90;;;;;;5025937;28;20179;-66
2023/04/25 07:45:09;;;;;;;5.30;2.60;;;6.30;99.90;;;;;;5012859;28;20205;-66
2023/04/25 07:47:35;;;;;;;9.50;3.17;;;6.40;99.90;;;;;;5014226;28;20266;-66
2023/04/25 07:50:01;;;;;;;3.80;2.00;;;6.40;99.90;;;;;;5020638;28;20529;-66
2023/04/25 07:52:26;;;;;;;3.77;2.30;;;6.40;99.90;;;;;;5013601;28;20502;-66
2023/04/25 07:54:52;;;;;;;3.83;2.43;;;6.40;99.90;;;;;;5024823;28;20195;-66
2023/04/25 07:57:19;;;;;;;4.33;2.40;;;6.30;99.90;;;;;;5025962;28;20782;-66
2023/04/25 07:59:45;;;;;;;5.30;2.87;;;6.30;99.90;;;;;;5012881;28;20179;-66
2023/04/25 08:02:10;;;;;;;4.30;2.57;;;6.30;99.90;;;;;;5026306;28;20513;-66
2023/04/25 08:04:36;;;;;;;15.23;2.53;;;6.30;99.90;;;;;;5023854;28;20616;-66
2023/04/25 08:07:01;;;;;;;6.70;3.23;;;6.30;99.90;;;;;;5006403;28;20191;-66
2023/04/25 08:09:27;;;;;;;3.73;2.10;;;6.30;99.90;;;;;;5016267;28;20655;-66
2023/04/25 08:11:53;;;;;;;3.03;1.80;;;6.30;99.90;;;;;;5018716;28;20187;-66
2023/04/25 08:14:19;;;;;;;7.20;2.20;;;6.30;99.90;;;;;;5019826;28;20791;-66
2023/04/25 08:16:44;;;;;;;4.50;3.07;;;6.10;99.90;;;;;;5018759;28;20622;-66
2023/04/25 08:19:10;;;;;;;3.07;1.73;;;6.10;99.90;;;;;;5019275;28;20193;-65
2023/04/25 08:21:36;;;;;;;2.50;1.73;;;6.00;99.90;;;;;;5017720;28;20179;-66
2023/04/25 08:24:02;;;;;;;2.80;1.80;;;5.90;99.90;;;;;;5031766;28;20440;-66
2023/04/25 08:26:28;;;;;;;4.47;1.60;;;5.90;99.90;;;;;;5032142;28;20464;-66
2023/04/25 08:28:54;;;;;;;4.50;1.80;;;5.90;99.90;;;;;;5024797;28;20191;-66
2023/04/25 08:31:20;;;;;;;5.10;2.63;;;6.00;99.90;;;;;;5012163;28;20820;-66
2023/04/25 08:33:46;;;;;;;5.17;2.53;;;5.90;99.90;;;;;;5009131;28;20195;-66
2023/04/25 08:36:12;;;;;;;3.10;1.50;;;5.80;99.90;;;;;;5013837;28;20539;-66
2023/04/25 08:38:37;;;;;;;3.83;1.40;;;5.70;99.90;;;;;;5014388;28;20190;-66
2023/04/25 08:41:05;;;;;;;3.40;1.73;;;5.80;99.90;;;;;;5006908;28;20184;-66
2023/04/25 08:43:30;;;;;;;8.70;3.83;;;5.80;99.90;;;;;;5016021;28;20179;-66
2023/04/25 08:46:00;;;;;;;4.83;2.10;;;5.80;99.90;;;;;;5010314;28;20511;-66
2023/04/25 08:48:32;;;;;;;4.07;2.60;;;5.80;99.90;;;;;;5019056;28;20187;-66
2023/04/25 08:50:58;;;;;;;4.87;2.50;;;5.70;99.90;;;;;;5012473;28;20440;-66
2023/04/25 08:53:29;;;;;;;5.53;2.87;;;5.80;99.90;;;;;;5010739;28;20763;-66
2023/04/25 08:55:56;;;;;;;5.50;2.73;;;5.80;99.90;;;;;;5024539;28;20337;-66
2023/04/25 08:58:22;;;;;;;5.53;2.20;;;5.80;99.90;;;;;;5011219;28;20426;-66
2023/04/25 09:00:49;;;;;;;5.20;2.80;;;5.80;99.90;;;;;;5013847;28;20506;-66
2023/04/25 09:03:15;;;;;;;5.80;2.90;;;5.80;99.90;;;;;;5020476;28;20616;-66
2023/04/25 09:05:41;;;;;;;5.40;2.60;;;5.80;99.90;;;;;;5023707;28;21126;-66
2023/04/25 09:08:07;;;;;;;5.90;2.13;;;5.80;99.90;;;;;;5020056;28;20428;-66
2023/04/25 09:10:33;;;;;;;4.40;2.40;;;5.90;99.90;;;;;;5024073;28;20430;-66
2023/04/25 09:13:11;;;;;;;2.47;1.47;;;5.80;99.90;;;;;;5010766;28;20187;-66
2023/04/25 09:15:51;;;;;;;8.83;2.47;;;5.80;99.90;;;;;;5023643;28;20568;-66
2023/04/25 09:18:26;;;;;;;3.53;1.83;;;5.70;99.90;;;;;;5005668;28;20902;-66
2023/04/25 09:20:56;;;;;;;3.70;2.10;;;5.70;99.90;;;;;;5029700;28;20445;-66
2023/04/25 09:23:23;;;;;;;3.23;1.90;;;5.70;99.90;;;;;;5029806;28;20474;-66
2023/04/25 09:25:50;;;;;;;3.80;2.00;;;5.60;99.90;;;;;;5014328;28;20417;-66
2023/04/25 09:28:17;;;;;;;2.83;1.47;;;5.60;99.90;;;;;;5016481;28;20486;-66
2023/04/25 09:30:42;;;;;;;3.10;1.23;;;5.50;99.90;;;;;;5029098;28;20901;-66
2023/04/25 09:33:12;;;;;;;2.87;1.67;;;5.50;99.90;;;;;;5013171;28;20460;-66
2023/04/25 09:35:52;;;;;;;5.40;1.43;;;5.50;99.90;;;;;;5018034;28;20187;-66
2023/04/25 09:38:18;;;;;;;4.33;1.33;;;5.50;99.90;;;;;;5028715;28;20416;-66
2023/04/25 09:40:46;;;;;;;1.93;1.30;;;5.60;99.90;;;;;;5028915;28;20865;-66
2023/04/25 09:43:21;;;;;;;1.67;0.90;;;5.50;99.90;;;;;;5022951;28;20640;-66
2023/04/25 09:45:47;;;;;;;1.63;1.07;;;5.50;99.90;;;;;;4992016;28;21009;-66
2023/04/25 09:48:20;;;;;;;1.60;0.93;;;5.40;99.90;;;;;;5017417;28;20425;-66
2023/04/25 09:51:10;;;;;;;1.30;0.60;;;5.40;99.90;;;;;;5011405;28;20522;-66
2023/04/25 09:53:37;;;;;;;3.03;1.30;;;5.40;99.90;;;;;;5013858;28;20767;-66
2023/04/25 09:56:08;;;;;;;1.50;0.70;;;5.30;99.90;;;;;;5011899;28;20462;-66
2023/04/25 09:58:35;;;;;;;2.13;0.80;;;5.30;99.90;;;;;;5021951;28;20418;-63
2023/04/25 10:01:06;;;;;;;1.67;0.60;;;5.30;99.90;;;;;;5021351;28;20536;-63
2023/04/25 10:03:33;;;;;;;1.83;0.70;;;5.30;99.90;;;;;;5021745;28;20463;-63
2023/04/25 10:06:06;;;;;;;1.50;0.90;;;5.10;99.90;;;;;;5009763;28;20933;-63
2023/04/25 10:08:34;;;;;;;1.30;0.70;;;5.20;99.90;;;;;;5008808;28;20481;-64
2023/04/25 10:11:02;;;;;;;18.33;0.97;;;5.20;99.90;;;;;;5017953;28;20431;-64
2023/04/25 10:13:30;;;;;;;2.17;0.80;;;5.20;99.90;;;;;;5002586;28;20430;-64
2023/04/25 10:16:01;;;;;;;2.43;0.70;;;5.30;99.90;;;;;;5007955;28;20930;-64
2023/04/25 10:18:28;;;;;;;1.90;0.97;;;5.40;99.90;;;;;;5006799;28;20429;-64
2023/04/25 10:20:59;;;;;;;1.20;0.50;;;5.40;99.90;;;;;;5013173;28;20488;-64
2023/04/25 10:23:25;;;;;;;1.73;0.70;;;5.40;99.90;;;;;;5011361;28;20500;-64
2023/04/25 10:25:52;;;;;;;2.10;0.90;;;5.50;99.90;;;;;;5020356;28;20425;-64
2023/04/25 10:28:19;;;;;;;1.50;0.80;;;5.50;99.90;;;;;;5024957;28;20520;-64
2023/04/25 10:31:01;;;;;;;1.60;0.67;;;5.50;99.90;;;;;;5030229;28;20425;-64
2023/04/25 10:33:36;;;;;;;1.20;0.57;;;5.50;99.90;;;;;;5019253;28;20425;-64
2023/04/25 10:36:10;;;;;;;1.50;0.50;;;5.60;99.90;;;;;;5020125;28;20461;-63
2023/04/25 10:38:37;;;;;;;1.20;0.50;;;5.70;99.90;;;;;;5017639;28;20420;-64
2023/04/25 10:41:05;;;;;;;3.10;1.03;;;5.60;99.90;;;;;;5018552;28;20429;-64
2023/04/25 10:43:41;;;;;;;1.70;0.90;;;5.70;99.90;;;;;;5016110;28;20472;-64
2023/04/25 10:46:15;;;;;;;1.10;0.60;;;5.70;99.90;;;;;;5012890;28;20995;-64
2023/04/25 10:48:49;;;;;;;1.20;0.60;;;5.70;99.90;;;;;;5012942;28;20426;-64
2023/04/25 10:51:28;;;;;;;1.30;0.60;;;5.80;99.90;;;;;;5015578;28;20874;-64
2023/04/25 10:54:06;;;;;;;1.10;0.60;;;5.80;99.90;;;;;;5012816;28;20452;-64
2023/04/25 10:56:33;;;;;;;1.10;0.50;;;5.90;99.90;;;;;;5006854;28;20465;-64
2023/04/25 10:59:13;;;;;;;1.10;0.50;;;6.00;99.90;;;;;;5027761;28;20542;-64
2023/04/25 11:01:46;;;;;;;1.10;0.40;;;6.00;99.90;;;;;;5018736;28;20429;-64
2023/04/25 11:04:21;;;;;;;1.40;0.50;;;6.10;99.90;;;;;;5025210;28;20422;-65
2023/04/25 11:07:05;;;;;;;1.10;0.40;;;6.20;99.90;;;;;;5024568;28;20486;-65
2023/04/25 11:09:32;;;;;;;1.30;0.60;;;6.10;99.90;;;;;;5023832;28;20513;-67
2023/04/25 11:11:59;;;;;;;1.40;0.47;;;6.30;99.90;;;;;;5018308;28;20436;-64
2023/04/25 11:14:26;;;;;;;1.20;0.50;;;6.10;99.90;;;;;;5022700;28;20441;-64
2023/04/25 11:16:56;;;;;;;2.13;0.60;;;6.00;99.90;;;;;;5013899;28;20502;-64
2023/04/25 11:19:23;;;;;;;2.00;0.60;;;6.10;99.90;;;;;;5027951;28;20901;-64
2023/04/25 11:21:49;;;;;;;1.70;0.53;;;5.90;99.90;;;;;;5009104;28;20470;-64
2023/04/25 11:24:16;;;;;;;3.00;0.80;;;6.00;99.90;;;;;;5010473;28;20970;-65
2023/04/25 11:26:46;;;;;;;1.87;0.50;;;6.00;99.90;;;;;;5014632;28;20954;-64
2023/04/25 11:29:11;;;;;;;1.20;0.50;;;6.10;99.90;;;;;;5005993;28;20439;-64
2023/04/25 11:31:37;;;;;;;1.87;0.90;;;6.20;99.90;;;;;;5007005;28;20921;-64
2023/04/25 11:34:03;;;;;;;1.37;0.70;;;6.20;99.90;;;;;;5008543;28;20195;-64
2023/04/25 11:36:28;;;;;;;1.90;0.80;;;6.40;99.90;;;;;;5014659;28;20244;-64
2023/04/25 11:38:54;;;;;;;1.80;0.70;;;6.40;99.90;;;;;;5027494;28;20182;-64
2023/04/25 11:41:21;;;;;;;1.63;0.63;;;6.50;99.90;;;;;;5014326;28;20180;-64
2023/04/25 11:43:48;;;;;;;1.20;0.50;;;6.50;99.90;;;;;;5012095;28;20721;-64
2023/04/25 11:46:13;;;;;;;3.40;0.90;;;6.40;99.90;;;;;;5007942;28;20739;-65
2023/04/25 11:48:40;;;;;;;3.43;0.73;;;6.40;99.90;;;;;;5011248;28;20951;-64
2023/04/25 11:51:06;;;;;;;1.93;0.70;;;6.30;99.90;;;;;;5011039;28;20195;-65
2023/04/25 11:53:32;;;;;;;1.67;0.67;;;6.30;99.90;;;;;;5021482;28;20782;-64
2023/04/25 11:55:58;;;;;;;2.00;1.10;;;6.20;99.90;;;;;;5017934;28;20520;-68
2023/04/25 11:58:25;;;;;;;2.00;1.10;;;6.10;99.90;;;;;;5011035;28;20510;-64
2023/04/25 12:00:50;;;;;;;2.57;1.23;;;6.10;99.90;;;;;;5012754;28;20178;-64
2023/04/25 12:03:17;;;;;;;2.60;0.83;;;6.10;99.90;;;;;;5019943;28;20422;-64
2023/04/25 12:05:45;;;;;;;3.60;1.50;;;6.10;99.90;;;;;;5015277;28;20221;-64
2023/04/25 12:08:15;;;;;;;2.53;1.50;;;6.20;99.90;;;;;;5031262;28;20413;-64
2023/04/25 12:10:43;;;;;;;4.03;2.10;;;6.20;99.90;;;;;;5012924;28;20501;-64
2023/04/25 12:13:27;;;;;;;6.10;2.50;;;6.20;99.90;;;;;;5011238;28;20469;-64
2023/04/25 12:15:57;;;;;;;7.87;2.40;;;6.30;99.90;;;;;;4999936;28;20431;-64
2023/04/25 12:18:28;;;;;;;26.23;9.17;;;6.40;99.90;;;;;;5010503;28;20430;-64
2023/04/25 12:20:54;;;;;;;7.43;3.43;;;6.40;99.90;;;;;;4997185;28;20430;-64
2023/04/25 12:23:30;;;;;;;2.70;1.40;;;6.40;99.90;;;;;;5006875;28;20417;-64
2023/04/25 12:25:56;;;;;;;3.57;1.83;;;6.30;99.90;;;;;;5013808;28;20417;-64
2023/04/25 12:28:23;;;;;;;2.17;1.43;;;6.30;99.90;;;;;;5014761;28;20916;-64
2023/04/25 12:30:58;;;;;;;4.20;2.13;;;6.30;99.90;;;;;;5030652;28;20178;-64
2023/04/25 12:33:29;;;;;;;3.17;1.90;;;6.30;99.90;;;;;;5016885;28;20959;-64
2023/04/25 12:35:55;;;;;;;7.53;2.27;;;6.40;99.90;;;;;;5017348;28;20417;-64
2023/04/25 12:38:30;;;;;;;2.80;1.87;;;6.30;99.90;;;;;;5017012;28;20422;-64
2023/04/25 12:40:56;;;;;;;4.60;2.00;;;6.40;99.90;;;;;;5030256;28;20969;-64
2023/04/25 12:43:22;;;;;;;6.73;3.27;;;6.40;99.90;;;;;;5010320;28;20468;-64
2023/04/25 12:45:52;;;;;;;4.37;2.33;;;6.40;99.90;;;;;;5010685;28;20445;-64
2023/04/25 12:48:18;;;;;;;3.50;1.80;;;6.40;99.90;;;;;;5010953;28;20182;-64
2023/04/25 12:50:45;;;;;;;6.00;2.70;;;6.40;99.90;;;;;;5010768;28;20422;-65
2023/04/25 12:53:11;;;;;;;2.83;1.67;;;6.50;99.90;;;;;;5016764;28;20420;-66
2023/04/25 12:55:37;;;;;;;3.60;2.20;;;6.50;99.90;;;;;;5016102;28;20513;-67